Time;durP1;ratioP1;P1;durP2;ratioP2;P2;SDS_P1;SDS_P2;PMS_P1;PMS_P2;Temp;Humidity;BMP_temperature;BMP_pressure;BME280_temperature;BME280_humidity;BME280_pressure;Samples;Min_cycle;Max_cycle;Signal;HPM_P1;HPM_P2
2022/11/10 00:01:04;;;;;;;9.77;2.50;;;9.70;99.90;;;;;;6159990;23;20043;-82
2022/11/10 00:03:29;;;;;;;8.25;2.38;;;9.60;99.90;;;;;;6160080;23;20013;-82
2022/11/10 00:05:55;;;;;;;13.05;3.72;;;9.60;99.90;;;;;;6186287;23;20040;-82
2022/11/10 00:08:21;;;;;;;12.85;2.45;;;9.60;99.90;;;;;;6160057;23;20017;-82
2022/11/10 00:11:00;;;;;;;9.75;2.45;;;9.60;99.90;;;;;;6186667;23;20332;-82
2022/11/10 00:13:34;;;;;;;9.93;2.55;;;9.50;99.90;;;;;;6159475;23;20020;-82
2022/11/10 00:18:47;;;;;;;8.85;2.13;;;9.60;99.90;;;;;;6159931;23;20350;-81
2022/11/10 00:21:14;;;;;;;11.23;2.10;;;9.50;99.90;;;;;;6186538;23;20449;-82
2022/11/10 00:23:40;;;;;;;9.65;2.70;;;9.40;99.90;;;;;;6159922;23;20096;-81
2022/11/10 00:26:11;;;;;;;8.82;1.95;;;9.40;99.90;;;;;;6186528;23;20009;-82
2022/11/10 00:28:37;;;;;;;16.42;2.58;;;9.40;99.90;;;;;;6186072;23;20017;-81
2022/11/10 00:31:06;;;;;;;7.70;2.53;;;9.40;99.90;;;;;;6186764;23;20075;-82
2022/11/10 00:33:37;;;;;;;11.63;1.95;;;9.40;99.90;;;;;;6186351;23;20017;-81
2022/11/10 00:36:03;;;;;;;10.23;2.70;;;9.40;99.90;;;;;;6186494;23;20009;-82
2022/11/10 00:38:29;;;;;;;8.27;2.10;;;9.40;99.90;;;;;;6159799;23;20044;-81
2022/11/10 00:40:54;;;;;;;7.13;2.15;;;9.40;99.90;;;;;;6186446;23;20086;-82
2022/11/10 00:43:20;;;;;;;8.73;1.90;;;9.40;99.90;;;;;;6186436;23;20009;-82
2022/11/10 00:45:46;;;;;;;11.00;2.70;;;9.40;99.90;;;;;;6186108;23;20029;-82
2022/11/10 00:48:11;;;;;;;10.20;2.33;;;9.40;99.90;;;;;;6186008;23;20017;-82
2022/11/10 00:50:37;;;;;;;12.50;2.60;;;9.50;99.90;;;;;;6159718;23;20016;-81
2022/11/10 00:53:03;;;;;;;10.13;2.05;;;9.40;99.90;;;;;;6186229;23;20027;-81
2022/11/10 00:55:28;;;;;;;10.88;1.95;;;9.40;99.90;;;;;;6159755;23;20100;-81
2022/11/10 00:57:54;;;;;;;11.65;2.35;;;9.40;99.90;;;;;;6185896;23;20017;-81
2022/11/10 01:00:19;;;;;;;16.05;2.63;;;9.40;99.90;;;;;;6159687;23;20121;-82
2022/11/10 01:02:45;;;;;;;14.45;2.63;;;9.40;99.90;;;;;;6186301;23;20024;-81
2022/11/10 01:05:11;;;;;;;16.50;2.00;;;9.40;99.90;;;;;;6185923;23;20462;-81
2022/11/10 01:07:36;;;;;;;9.18;1.90;;;9.40;99.90;;;;;;6186304;23;20426;-82
2022/11/10 01:10:03;;;;;;;8.20;2.17;;;9.30;99.90;;;;;;6186255;23;20345;-82
2022/11/10 01:12:29;;;;;;;11.13;2.30;;;9.30;99.90;;;;;;6185716;23;20048;-81
2022/11/10 01:14:55;;;;;;;10.15;1.95;;;9.30;99.90;;;;;;6186297;23;20023;-82
2022/11/10 01:17:21;;;;;;;11.98;2.83;;;9.30;99.90;;;;;;6186214;23;20014;-82
2022/11/10 01:19:47;;;;;;;9.90;3.40;;;9.30;99.90;;;;;;6185920;23;20021;-81
2022/11/10 01:22:12;;;;;;;13.63;3.53;;;9.30;99.90;;;;;;6186193;23;20009;-81
2022/11/10 01:24:38;;;;;;;7.82;2.28;;;9.30;99.90;;;;;;6160143;23;20341;-81
2022/11/10 01:27:04;;;;;;;15.35;2.50;;;9.30;99.90;;;;;;6161473;23;20342;-81
2022/11/10 01:29:29;;;;;;;9.77;2.50;;;9.30;99.90;;;;;;6161500;23;20063;-81
2022/11/10 01:31:55;;;;;;;14.27;2.70;;;9.30;99.90;;;;;;6161386;23;20383;-81
2022/11/10 01:34:21;;;;;;;10.55;2.60;;;9.30;99.90;;;;;;6188252;23;20315;-81
2022/11/10 01:36:46;;;;;;;13.50;2.60;;;9.20;99.90;;;;;;6188028;23;20025;-82
2022/11/10 01:39:12;;;;;;;12.95;3.55;;;9.30;99.90;;;;;;6188132;23;20438;-81
2022/11/10 01:41:37;;;;;;;11.40;2.40;;;9.20;99.90;;;;;;6187788;23;20468;-81
2022/11/10 01:44:17;;;;;;;14.07;3.08;;;9.20;99.90;;;;;;6161415;23;20091;-81
2022/11/10 01:46:43;;;;;;;17.70;3.08;;;9.20;99.90;;;;;;6188043;23;20056;-81
2022/11/10 01:49:10;;;;;;;12.63;3.42;;;9.30;99.90;;;;;;6187586;23;20013;-81
2022/11/10 01:51:39;;;;;;;13.70;2.90;;;9.20;99.90;;;;;;6161202;23;20092;-82
2022/11/10 01:54:09;;;;;;;10.02;2.60;;;9.20;99.90;;;;;;6161225;23;20075;-81
2022/11/10 01:56:40;;;;;;;7.65;2.42;;;9.20;99.90;;;;;;6187927;23;20048;-82
2022/11/10 01:59:11;;;;;;;12.52;2.55;;;9.30;99.90;;;;;;6187911;23;20021;-82
2022/11/10 02:01:37;;;;;;;14.75;2.40;;;9.30;99.90;;;;;;6187950;23;20036;-82
2022/11/10 02:04:06;;;;;;;15.23;2.45;;;9.30;99.90;;;;;;6187584;23;20334;-81
2022/11/10 02:06:43;;;;;;;14.35;2.95;;;9.30;99.90;;;;;;6187796;23;20020;-82
2022/11/10 02:09:09;;;;;;;12.68;2.88;;;9.30;99.90;;;;;;6187496;23;20345;-82
2022/11/10 02:11:36;;;;;;;14.55;2.90;;;9.30;99.90;;;;;;6188374;23;20013;-82
2022/11/10 02:14:03;;;;;;;18.38;3.08;;;9.30;99.90;;;;;;6187387;23;20358;-82
2022/11/10 02:16:29;;;;;;;13.52;3.42;;;9.30;99.90;;;;;;6187748;23;20044;-82
2022/11/10 02:18:55;;;;;;;15.10;2.97;;;9.30;99.90;;;;;;6187917;23;20017;-82
2022/11/10 02:21:21;;;;;;;13.25;3.22;;;9.20;99.90;;;;;;6187290;23;20033;-83
2022/11/10 02:23:48;;;;;;;15.23;2.75;;;9.20;99.90;;;;;;6161027;23;20017;-82
2022/11/10 02:26:19;;;;;;;12.20;3.15;;;9.30;99.90;;;;;;6161015;23;20353;-83
2022/11/10 02:28:45;;;;;;;18.60;3.60;;;9.20;99.90;;;;;;6187640;23;20024;-82
2022/11/10 02:31:11;;;;;;;17.48;3.80;;;9.20;99.90;;;;;;6160970;23;20025;-82
2022/11/10 02:33:37;;;;;;;18.85;6.20;;;9.30;99.90;;;;;;6187095;23;20449;-82
2022/11/10 02:36:03;;;;;;;17.65;3.90;;;9.30;99.90;;;;;;6187494;23;20084;-82
2022/11/10 02:38:29;;;;;;;15.13;5.03;;;9.20;99.90;;;;;;6160988;23;20025;-82
2022/11/10 02:40:55;;;;;;;12.35;4.03;;;9.30;99.90;;;;;;6187500;23;20069;-82
2022/11/10 02:43:20;;;;;;;15.70;4.45;;;9.30;99.90;;;;;;6187520;23;20020;-82
2022/11/10 02:45:46;;;;;;;18.13;4.93;;;9.20;99.90;;;;;;6160872;23;20381;-82
2022/11/10 02:48:13;;;;;;;16.38;4.90;;;9.30;99.90;;;;;;6187435;23;20386;-82
2022/11/10 02:50:39;;;;;;;18.73;5.03;;;9.30;99.90;;;;;;6187755;23;20028;-82
2022/11/10 02:53:05;;;;;;;14.93;5.70;;;9.30;99.90;;;;;;6160679;23;20025;-82
2022/11/10 02:55:31;;;;;;;18.52;4.60;;;9.30;99.90;;;;;;6187438;23;20107;-82
2022/11/10 02:57:57;;;;;;;16.48;5.38;;;9.30;99.90;;;;;;6187400;23;20013;-81
2022/11/10 03:00:22;;;;;;;13.20;5.47;;;9.30;99.90;;;;;;6187088;23;20512;-81
2022/11/10 03:02:48;;;;;;;19.27;5.78;;;9.30;99.90;;;;;;6186935;23;20013;-82
2022/11/10 03:05:14;;;;;;;22.20;5.78;;;9.30;99.90;;;;;;6187007;23;20449;-82
2022/11/10 03:07:39;;;;;;;15.90;5.70;;;9.30;99.90;;;;;;6160576;23;20020;-82
2022/11/10 03:10:06;;;;;;;18.83;6.22;;;9.30;99.90;;;;;;6160688;23;20349;-82
2022/11/10 03:12:32;;;;;;;25.20;6.53;;;9.30;99.90;;;;;;6160264;23;20111;-82
2022/11/10 03:14:57;;;;;;;21.40;6.28;;;9.30;99.90;;;;;;6186739;23;20021;-82
2022/11/10 03:17:23;;;;;;;22.92;6.78;;;9.30;99.90;;;;;;6186954;23;20060;-82
2022/11/10 03:19:49;;;;;;;17.98;6.72;;;9.30;99.90;;;;;;6160507;23;20017;-81
2022/11/10 03:22:15;;;;;;;17.00;6.35;;;9.30;99.90;;;;;;6187139;23;20021;-82
2022/11/10 03:24:41;;;;;;;15.70;5.45;;;9.30;99.90;;;;;;6187123;23;20013;-81
2022/11/10 03:27:06;;;;;;;18.55;6.78;;;9.30;99.90;;;;;;6187013;23;20062;-82
2022/11/10 03:29:32;;;;;;;18.05;6.57;;;9.30;99.90;;;;;;6187111;23;20040;-82
2022/11/10 03:31:58;;;;;;;22.95;6.10;;;9.30;99.90;;;;;;6186921;23;20009;-82
2022/11/10 03:34:23;;;;;;;21.73;7.15;;;9.30;99.90;;;;;;6187272;23;20028;-83
2022/11/10 03:36:49;;;;;;;19.58;6.00;;;9.40;99.90;;;;;;6160258;23;20013;-83
2022/11/10 03:39:15;;;;;;;21.42;6.43;;;9.30;99.90;;;;;;6186983;23;20048;-83
2022/11/10 03:41:40;;;;;;;22.90;7.63;;;9.30;99.90;;;;;;6186903;23;20053;-83
2022/11/10 03:44:06;;;;;;;22.38;6.10;;;9.40;99.90;;;;;;6186639;23;20077;-82
2022/11/10 03:46:31;;;;;;;25.65;6.70;;;9.30;99.90;;;;;;6186698;23;20020;-82
2022/11/10 03:48:57;;;;;;;25.20;6.43;;;9.40;99.90;;;;;;6159949;23;20385;-82
2022/11/10 03:51:23;;;;;;;25.10;6.65;;;9.40;99.90;;;;;;6186518;23;20453;-82
2022/11/10 03:53:48;;;;;;;18.92;6.95;;;9.40;99.90;;;;;;6186446;23;20020;-83
2022/11/10 03:56:14;;;;;;;15.82;6.30;;;9.50;99.90;;;;;;6160075;23;20013;-82
2022/11/10 03:58:40;;;;;;;15.35;6.43;;;9.40;99.90;;;;;;6186743;23;20020;-82
2022/11/10 04:01:06;;;;;;;19.02;6.90;;;9.50;99.90;;;;;;6186753;23;20036;-82
2022/11/10 04:03:31;;;;;;;24.58;6.85;;;9.50;99.90;;;;;;6186438;23;20021;-82
2022/11/10 04:08:59;;;;;;;17.52;6.63;;;9.40;99.90;;;;;;6186784;23;20024;-82
2022/11/10 04:16:59;;;;;;;23.48;6.68;;;9.50;99.90;;;;;;6160417;23;20453;-82
2022/11/10 04:19:25;;;;;;;21.98;6.68;;;9.50;99.90;;;;;;6186599;23;20020;-82
2022/11/10 04:21:51;;;;;;;23.35;6.97;;;9.50;99.90;;;;;;6186290;23;20017;-82
2022/11/10 04:24:17;;;;;;;17.88;6.40;;;9.50;99.90;;;;;;6159879;23;20048;-82
2022/11/10 04:26:43;;;;;;;24.88;7.03;;;9.50;99.90;;;;;;6186278;23;20395;-81
2022/11/10 04:29:10;;;;;;;26.40;6.53;;;9.60;99.90;;;;;;6159866;23;20487;-82
2022/11/10 04:31:39;;;;;;;24.10;7.00;;;9.50;99.90;;;;;;6186414;23;20067;-82
2022/11/10 04:34:06;;;;;;;32.70;7.55;;;9.60;99.90;;;;;;6186425;23;20020;-81
2022/11/10 04:36:34;;;;;;;18.45;6.45;;;9.60;99.90;;;;;;6186433;23;20099;-82
2022/11/10 04:39:01;;;;;;;19.67;5.95;;;9.60;99.90;;;;;;6186110;23;20083;-82
2022/11/10 04:41:29;;;;;;;20.70;5.95;;;9.60;99.90;;;;;;6159669;23;20436;-82
2022/11/10 04:43:55;;;;;;;22.95;6.72;;;9.60;99.90;;;;;;6186421;23;20045;-81
2022/11/10 04:46:28;;;;;;;17.40;6.45;;;9.60;99.90;;;;;;6186491;23;20017;-82
2022/11/10 04:48:54;;;;;;;19.55;6.38;;;9.60;99.90;;;;;;6159696;23;20053;-81
2022/11/10 04:51:23;;;;;;;27.38;6.50;;;9.60;99.90;;;;;;6186362;23;20024;-82
2022/11/10 04:53:49;;;;;;;24.85;6.63;;;9.60;99.90;;;;;;6186260;23;20027;-82
2022/11/10 04:56:16;;;;;;;27.67;6.10;;;9.70;99.90;;;;;;6159742;23;20092;-82
2022/11/10 04:58:42;;;;;;;21.08;6.40;;;9.70;99.90;;;;;;6185999;23;20381;-82
2022/11/10 05:01:13;;;;;;;22.20;6.38;;;9.70;99.90;;;;;;6186276;23;20025;-82
2022/11/10 05:03:38;;;;;;;25.00;6.75;;;9.70;99.90;;;;;;6185949;23;20442;-82
2022/11/10 05:06:04;;;;;;;17.67;7.03;;;9.70;99.90;;;;;;6185863;23;20161;-82
2022/11/10 05:08:30;;;;;;;31.42;7.43;;;9.80;99.90;;;;;;6186293;23;20013;-82
2022/11/10 05:10:56;;;;;;;23.33;6.43;;;9.70;99.90;;;;;;6159630;23;20017;-82
2022/11/10 05:13:21;;;;;;;22.55;7.00;;;9.80;99.90;;;;;;6185727;23;20014;-82
2022/11/10 05:15:47;;;;;;;22.77;7.57;;;9.80;99.90;;;;;;6185893;23;20013;-82
2022/11/10 05:18:13;;;;;;;25.65;7.57;;;9.80;99.90;;;;;;6186161;23;20021;-82
2022/11/10 05:20:39;;;;;;;23.23;7.00;;;9.70;99.90;;;;;;6186219;23;20013;-83
2022/11/10 05:25:48;;;;;;;33.10;7.57;;;9.70;99.90;;;;;;6159540;23;20048;-82
2022/11/10 05:28:15;;;;;;;21.58;7.15;;;9.80;99.90;;;;;;6186171;23;20056;-82
2022/11/10 05:30:41;;;;;;;25.05;6.82;;;9.80;99.90;;;;;;6185910;23;20315;-82
2022/11/10 05:33:07;;;;;;;26.35;6.93;;;9.80;99.90;;;;;;6186034;23;20108;-82
2022/11/10 05:35:34;;;;;;;24.10;6.78;;;9.80;99.90;;;;;;6186066;23;20044;-82
2022/11/10 05:38:00;;;;;;;20.67;6.57;;;9.80;99.90;;;;;;6185858;23;20021;-82
2022/11/10 05:40:25;;;;;;;25.75;6.53;;;9.80;99.90;;;;;;6159602;23;20017;-82
2022/11/10 05:42:54;;;;;;;24.10;6.70;;;9.80;99.90;;;;;;6185789;23;20075;-82
2022/11/10 05:45:23;;;;;;;21.88;6.25;;;9.80;99.90;;;;;;6186182;23;20020;-82
2022/11/10 05:47:49;;;;;;;20.45;6.68;;;9.80;99.90;;;;;;6159419;23;20069;-82
2022/11/10 05:50:16;;;;;;;20.92;5.72;;;9.80;99.90;;;;;;6186085;23;20048;-81
2022/11/10 05:52:47;;;;;;;21.30;5.63;;;9.70;99.90;;;;;;6185978;23;20017;-81
2022/11/10 05:55:14;;;;;;;22.60;5.28;;;9.80;99.90;;;;;;6186105;23;20035;-82
2022/11/10 05:57:44;;;;;;;28.02;6.43;;;9.80;99.90;;;;;;6159409;23;20390;-82
2022/11/10 06:00:11;;;;;;;30.45;6.38;;;9.80;99.90;;;;;;6159328;23;20021;-83
2022/11/10 06:02:36;;;;;;;27.73;7.00;;;9.80;99.90;;;;;;6185989;23;20029;-82
2022/11/10 06:05:02;;;;;;;22.48;6.28;;;9.80;99.90;;;;;;6159407;23;20564;-82
2022/11/10 06:07:28;;;;;;;22.15;5.60;;;9.80;99.90;;;;;;6159292;23;20093;-82
2022/11/10 06:09:54;;;;;;;22.90;5.90;;;9.90;99.90;;;;;;6186020;23;20044;-82
2022/11/10 06:12:20;;;;;;;31.60;6.25;;;9.90;99.90;;;;;;6187116;23;20552;-82
2022/11/10 06:14:46;;;;;;;26.42;5.97;;;9.90;99.90;;;;;;6187830;23;20025;-83
2022/11/10 06:17:12;;;;;;;20.90;5.78;;;9.90;99.90;;;;;;6161112;23;20009;-82
2022/11/10 06:19:38;;;;;;;20.58;5.90;;;9.90;99.90;;;;;;6187718;23;20124;-82
2022/11/10 06:22:04;;;;;;;17.15;5.55;;;9.90;99.90;;;;;;6187737;23;20020;-82
2022/11/10 06:24:30;;;;;;;23.67;5.68;;;9.90;99.90;;;;;;6187748;23;20009;-82
2022/11/10 06:26:55;;;;;;;25.83;6.32;;;9.90;99.90;;;;;;6187311;23;20377;-82
2022/11/10 06:29:21;;;;;;;19.60;5.72;;;9.90;99.90;;;;;;6187335;23;20025;-82
2022/11/10 06:31:47;;;;;;;26.95;5.80;;;9.90;99.90;;;;;;6187508;23;20013;-82
2022/11/10 06:34:12;;;;;;;29.02;6.43;;;9.90;99.90;;;;;;6161003;23;20017;-82
2022/11/10 06:36:39;;;;;;;25.00;5.53;;;9.90;99.90;;;;;;6187280;23;20021;-83
2022/11/10 06:39:05;;;;;;;21.50;5.60;;;9.90;99.90;;;;;;6160598;23;20048;-82
2022/11/10 06:41:32;;;;;;;28.30;6.43;;;9.90;99.90;;;;;;6159262;23;20079;-82
2022/11/10 06:43:58;;;;;;;20.63;5.53;;;9.90;99.90;;;;;;6158862;23;20017;-82
2022/11/10 06:46:24;;;;;;;25.33;5.90;;;9.90;99.90;;;;;;6159742;23;20017;-82
2022/11/10 06:48:50;;;;;;;24.45;4.82;;;9.90;99.90;;;;;;6160136;23;20025;-82
2022/11/10 06:51:15;;;;;;;29.45;6.00;;;9.90;99.90;;;;;;6186562;23;20052;-82
2022/11/10 06:53:41;;;;;;;23.10;5.90;;;9.90;99.90;;;;;;6185730;23;20028;-82
2022/11/10 06:56:07;;;;;;;29.50;6.50;;;9.90;99.90;;;;;;6160406;23;20023;-83
2022/11/10 06:58:33;;;;;;;20.17;5.43;;;10.00;99.90;;;;;;6187238;23;20013;-83
2022/11/10 07:00:59;;;;;;;35.97;5.60;;;9.90;99.90;;;;;;6186802;23;20014;-83
2022/11/10 07:03:25;;;;;;;29.77;5.68;;;10.00;99.90;;;;;;6160486;23;20052;-84
2022/11/10 07:05:51;;;;;;;21.17;5.40;;;10.00;99.90;;;;;;6160499;23;20017;-82
2022/11/10 07:08:17;;;;;;;26.80;6.38;;;10.00;99.90;;;;;;6186881;23;20087;-81
2022/11/10 07:10:44;;;;;;;21.02;4.82;;;10.00;99.90;;;;;;6187074;23;20009;-82
2022/11/10 07:13:10;;;;;;;23.02;4.90;;;10.00;99.90;;;;;;6186515;23;20020;-82
2022/11/10 07:15:36;;;;;;;25.25;4.82;;;10.00;99.90;;;;;;6187050;23;20017;-82
2022/11/10 07:18:03;;;;;;;30.88;4.53;;;10.00;99.90;;;;;;6187118;23;20064;-82
2022/11/10 07:20:32;;;;;;;24.55;4.40;;;10.00;99.90;;;;;;6186709;23;20349;-82
2022/11/10 07:23:06;;;;;;;19.25;4.97;;;10.00;99.90;;;;;;6186072;23;20345;-83
2022/11/10 07:25:34;;;;;;;22.50;3.90;;;9.90;99.90;;;;;;6186583;23;20342;-81
2022/11/10 07:28:02;;;;;;;23.65;3.70;;;10.10;99.90;;;;;;6186585;23;20564;-82
2022/11/10 07:30:29;;;;;;;26.10;3.90;;;10.00;99.90;;;;;;6186922;23;20016;-80
2022/11/10 07:32:58;;;;;;;32.33;5.25;;;10.00;99.90;;;;;;6160402;23;20052;-82
2022/11/10 07:35:24;;;;;;;29.92;4.40;;;10.10;99.90;;;;;;6186066;23;20104;-81
2022/11/10 07:37:50;;;;;;;16.80;3.75;;;10.00;99.90;;;;;;6186448;23;20306;-81
2022/11/10 07:40:15;;;;;;;19.38;3.55;;;10.10;99.90;;;;;;6186635;23;20017;-81
2022/11/10 07:42:41;;;;;;;21.98;4.13;;;10.10;99.90;;;;;;6186571;23;20012;-81
2022/11/10 07:45:07;;;;;;;27.88;4.95;;;10.20;99.90;;;;;;6186303;23;20013;-83
2022/11/10 07:47:33;;;;;;;26.13;4.50;;;10.10;99.90;;;;;;6186604;23;20013;-82
2022/11/10 07:49:59;;;;;;;19.90;3.60;;;10.10;99.90;;;;;;6186268;23;20024;-82
2022/11/10 07:52:24;;;;;;;18.10;3.67;;;10.10;99.90;;;;;;6186337;23;20021;-80
2022/11/10 07:54:50;;;;;;;25.08;4.07;;;10.20;99.90;;;;;;6186450;23;20515;-82
2022/11/10 07:57:15;;;;;;;23.88;4.15;;;10.30;99.90;;;;;;6186474;23;20016;-82
2022/11/10 07:59:41;;;;;;;22.58;4.13;;;10.30;99.90;;;;;;6185998;23;20108;-82
2022/11/10 08:02:12;;;;;;;22.92;3.60;;;10.40;99.90;;;;;;6186456;23;20024;-81
2022/11/10 08:04:38;;;;;;;28.52;4.18;;;10.30;99.90;;;;;;6159776;23;20052;-80
2022/11/10 08:07:03;;;;;;;28.80;5.07;;;10.40;99.90;;;;;;6185934;23;20346;-84
2022/11/10 08:09:29;;;;;;;23.83;3.60;;;10.50;99.90;;;;;;6186044;23;20016;-83
2022/11/10 08:11:54;;;;;;;29.65;4.07;;;10.50;99.90;;;;;;6159355;23;20077;-82
2022/11/10 08:14:20;;;;;;;23.58;5.13;;;10.60;99.90;;;;;;6186409;23;20087;-84
2022/11/10 08:16:46;;;;;;;30.75;4.70;;;10.70;99.90;;;;;;6186321;23;20017;-82
2022/11/10 08:19:12;;;;;;;28.98;4.85;;;10.70;99.90;;;;;;6159617;23;20028;-83
2022/11/10 08:21:37;;;;;;;30.20;4.85;;;10.70;99.90;;;;;;6186114;23;20021;-80
2022/11/10 08:24:03;;;;;;;20.10;3.75;;;10.70;99.90;;;;;;6186402;23;20023;-83
2022/11/10 08:26:29;;;;;;;23.27;3.85;;;10.80;99.90;;;;;;6159795;23;20017;-82
2022/11/10 08:28:54;;;;;;;22.00;5.10;;;10.80;99.90;;;;;;6186019;23;20021;-82
2022/11/10 08:31:20;;;;;;;31.30;4.88;;;10.80;99.90;;;;;;6186393;23;20477;-80
2022/11/10 08:33:46;;;;;;;26.40;4.68;;;10.80;99.90;;;;;;6159393;23;20101;-80
2022/11/10 08:36:13;;;;;;;34.88;5.07;;;10.90;99.90;;;;;;6184860;23;20104;-81
2022/11/10 08:38:38;;;;;;;21.02;3.15;;;10.80;99.90;;;;;;6186451;23;20028;-81
2022/11/10 08:41:04;;;;;;;26.77;4.38;;;10.80;99.90;;;;;;6186292;23;20017;-81
2022/11/10 08:43:30;;;;;;;32.63;5.32;;;10.90;99.90;;;;;;6186348;23;20103;-81
2022/11/10 08:45:55;;;;;;;22.63;3.95;;;10.90;99.90;;;;;;6186259;23;20048;-81
2022/11/10 08:48:21;;;;;;;21.77;3.83;;;10.90;99.90;;;;;;6185958;23;20064;-81
2022/11/10 08:50:48;;;;;;;30.17;4.53;;;11.00;99.90;;;;;;6186143;23;20017;-81
2022/11/10 08:53:16;;;;;;;25.85;4.60;;;11.00;99.90;;;;;;6185791;23;20025;-80
2022/11/10 08:55:43;;;;;;;31.10;4.72;;;11.10;99.90;;;;;;6186231;23;20049;-80
2022/11/10 08:58:23;;;;;;;21.45;4.95;;;11.30;99.90;;;;;;6186186;23;20025;-81
2022/11/10 09:00:49;;;;;;;28.90;6.70;;;11.20;99.90;;;;;;6186299;23;20018;-81
2022/11/10 09:03:21;;;;;;;24.45;3.90;;;11.30;99.90;;;;;;6186105;23;20103;-81
2022/11/10 09:05:48;;;;;;;21.77;4.30;;;11.40;99.90;;;;;;6159606;23;20044;-80
2022/11/10 09:08:14;;;;;;;24.90;4.13;;;11.40;99.90;;;;;;6186191;23;20024;-81
2022/11/10 09:10:43;;;;;;;20.60;4.15;;;11.50;99.90;;;;;;6186259;23;20017;-80
2022/11/10 09:13:10;;;;;;;23.15;3.75;;;11.60;99.90;;;;;;6154212;23;20028;-81
2022/11/10 09:15:36;;;;;;;25.08;4.13;;;11.60;99.90;;;;;;6156037;23;20044;-80
2022/11/10 09:18:03;;;;;;;25.75;4.43;;;11.60;99.90;;;;;;6156004;23;20442;-80
2022/11/10 09:20:31;;;;;;;27.73;4.20;;;11.70;99.90;;;;;;6155896;23;20442;-81
2022/11/10 09:23:05;;;;;;;26.48;3.85;;;11.80;99.90;;;;;;6130178;23;20021;-80
2022/11/10 09:25:31;;;;;;;36.95;4.63;;;11.80;99.90;;;;;;6156279;23;20037;-80
2022/11/10 09:27:56;;;;;;;29.00;4.82;;;11.90;99.90;;;;;;6129859;23;20446;-80
2022/11/10 09:30:22;;;;;;;22.13;4.43;;;12.00;99.90;;;;;;6156168;23;20014;-80
2022/11/10 09:32:55;;;;;;;26.00;4.40;;;12.10;99.90;;;;;;6129668;23;20025;-80
2022/11/10 09:35:22;;;;;;;20.63;4.15;;;12.10;99.90;;;;;;6129989;23;20017;-80
2022/11/10 09:37:47;;;;;;;25.20;4.75;;;12.00;99.90;;;;;;6129842;23;20024;-80
2022/11/10 09:40:22;;;;;;;22.73;4.95;;;12.00;99.90;;;;;;6156837;23;20041;-80
2022/11/10 09:42:48;;;;;;;23.33;3.58;;;12.00;99.90;;;;;;6156135;23;20018;-80
2022/11/10 09:45:25;;;;;;;22.05;4.07;;;12.10;99.90;;;;;;6156448;23;20075;-80
2022/11/10 09:48:11;;;;;;;22.77;3.90;;;12.10;99.90;;;;;;6157755;23;20446;-80
2022/11/10 09:50:52;;;;;;;23.73;4.30;;;12.20;99.90;;;;;;6158163;23;20021;-80
2022/11/10 09:53:25;;;;;;;24.05;4.32;;;12.30;99.90;;;;;;6157755;23;20018;-79
2022/11/10 09:55:52;;;;;;;;;;;12.40;99.90;;;;;;6158249;23;20433;-80
2022/11/10 09:58:21;;;;;;;28.95;4.20;;;12.40;99.90;;;;;;6158098;23;19928;-80
2022/11/10 10:01:06;;;;;;;29.52;4.10;;;12.50;99.90;;;;;;6157702;23;20488;-80
2022/11/10 10:03:35;;;;;;;19.85;3.75;;;12.50;99.90;;;;;;6131566;23;20017;-80
2022/11/10 10:06:10;;;;;;;26.08;5.10;;;12.50;99.90;;;;;;6131531;23;20017;-80
2022/11/10 10:09:02;;;;;;;27.55;5.07;;;12.60;99.90;;;;;;6157244;23;20390;-81
2022/11/10 10:16:03;;;;;;;26.50;4.50;;;12.50;99.90;;;;;;6157083;23;20035;-80
2022/11/10 10:19:22;;;;;;;20.92;4.60;;;12.50;99.90;;;;;;6015009;23;20063;-80
2022/11/10 10:22:25;;;;;;;26.25;6.25;;;12.50;99.90;;;;;;6010274;23;20094;-80
2022/11/10 10:24:55;;;;;;;15.38;4.90;;;12.60;99.90;;;;;;6155928;23;20349;-80
2022/11/10 10:27:24;;;;;;;21.08;4.70;;;12.50;99.90;;;;;;6157717;23;20020;-80
2022/11/10 10:29:51;;;;;;;25.15;5.72;;;12.60;99.90;;;;;;6157309;23;20485;-79
2022/11/10 10:32:18;;;;;;;25.48;5.00;;;12.50;99.90;;;;;;6157636;23;20084;-80
2022/11/10 10:34:45;;;;;;;31.33;6.63;;;12.60;99.90;;;;;;6157672;23;20029;-80
2022/11/10 10:37:46;;;;;;;27.83;6.32;;;12.60;99.90;;;;;;6131174;23;20088;-80
2022/11/10 10:40:18;;;;;;;18.58;5.43;;;12.80;99.90;;;;;;6151438;23;20472;-80
2022/11/10 10:42:44;;;;;;;24.00;4.90;;;12.90;99.90;;;;;;6157666;23;20076;-80
2022/11/10 10:45:16;;;;;;;24.25;5.28;;;13.00;99.90;;;;;;6131056;23;20018;-80
2022/11/10 10:47:42;;;;;;;27.73;5.70;;;13.10;99.90;;;;;;6131083;23;20032;-79
2022/11/10 10:50:28;;;;;;;27.40;5.22;;;13.00;99.90;;;;;;6157510;23;20017;-79
2022/11/10 10:53:19;;;;;;;23.00;4.72;;;13.10;99.90;;;;;;6157525;23;20513;-79
2022/11/10 10:55:46;;;;;;;17.60;3.95;;;13.30;99.90;;;;;;6157550;23;20018;-79
2022/11/10 10:58:50;;;;;;;24.25;4.47;;;13.30;99.90;;;;;;6157301;23;20015;-79
2022/11/10 11:01:15;;;;;;;22.83;4.63;;;13.30;99.90;;;;;;6121671;23;20025;-79
2022/11/10 11:03:51;;;;;;;23.00;4.20;;;13.30;99.90;;;;;;6157102;23;20077;-79
2022/11/10 11:06:24;;;;;;;19.40;4.05;;;13.20;99.90;;;;;;6157345;23;20061;-80
2022/11/10 11:08:56;;;;;;;18.27;3.60;;;13.00;99.90;;;;;;6157475;23;20079;-80
2022/11/10 11:11:30;;;;;;;20.70;5.22;;;13.00;99.90;;;;;;6157346;23;20013;-79
2022/11/10 11:14:25;;;;;;;28.52;4.28;;;13.00;99.90;;;;;;6156930;23;20021;-79
2022/11/10 11:16:51;;;;;;;28.05;4.85;;;13.00;99.90;;;;;;6157218;23;20029;-79
2022/11/10 11:19:24;;;;;;;24.42;4.68;;;13.00;99.90;;;;;;6157037;23;20022;-79
2022/11/10 11:22:04;;;;;;;34.17;5.93;;;13.00;99.90;;;;;;6157315;23;20017;-79
2022/11/10 11:24:47;;;;;;;21.40;4.57;;;12.90;99.90;;;;;;6156924;23;20469;-79
2022/11/10 11:27:24;;;;;;;;;;;12.90;99.90;;;;;;6157524;23;20017;-80
2022/11/10 11:30:10;;;;;;;37.58;6.93;;;13.00;99.90;;;;;;6156808;23;19991;-79
2022/11/10 11:33:10;;;;;;;26.90;6.30;;;13.00;99.90;;;;;;6130618;23;20022;-79
2022/11/10 11:36:06;;;;;;;24.42;6.10;;;13.00;99.90;;;;;;6156627;23;20403;-79
2022/11/10 11:39:13;;;;;;;34.10;6.53;;;13.00;99.90;;;;;;6156807;23;20075;-79
2022/11/10 11:42:09;;;;;;;24.83;7.50;;;13.00;99.90;;;;;;6038083;23;20038;-80
2022/11/10 11:44:36;;;;;;;25.92;7.40;;;12.90;99.90;;;;;;6156670;23;20328;-79
2022/11/10 11:47:12;;;;;;;26.48;6.20;;;12.90;99.90;;;;;;6156652;23;20017;-79
2022/11/10 11:49:50;;;;;;;28.02;6.90;;;12.80;99.90;;;;;;6157110;23;20025;-79
2022/11/10 11:52:27;;;;;;;24.55;8.00;;;12.80;99.90;;;;;;6156544;23;20028;-79
2022/11/10 11:55:20;;;;;;;21.15;6.93;;;12.70;99.90;;;;;;6156661;23;20468;-80
2022/11/10 11:58:04;;;;;;;24.10;7.78;;;12.60;99.90;;;;;;6156617;23;20473;-79
2022/11/10 12:01:04;;;;;;;23.80;8.50;;;12.60;99.90;;;;;;6156550;23;20342;-80
2022/11/10 12:03:55;;;;;;;26.23;7.80;;;12.60;99.90;;;;;;6051969;23;20117;-79
2022/11/10 12:06:41;;;;;;;26.95;7.72;;;12.50;99.90;;;;;;6156729;23;20021;-79
2022/11/10 12:09:17;;;;;;;31.02;8.40;;;12.50;99.90;;;;;;6140125;23;20017;-79
2022/11/10 12:11:55;;;;;;;28.00;7.43;;;12.50;99.90;;;;;;6156769;23;20039;-79
2022/11/10 12:14:47;;;;;;;31.10;7.32;;;12.50;99.90;;;;;;6156168;23;20390;-79
2022/11/10 12:17:28;;;;;;;32.42;7.93;;;12.50;99.90;;;;;;6156252;23;20320;-80
2022/11/10 12:20:00;;;;;;;31.50;7.55;;;12.50;99.90;;;;;;6156464;23;20013;-79
2022/11/10 12:22:29;;;;;;;31.05;6.78;;;12.50;99.90;;;;;;6156800;23;20072;-79
2022/11/10 12:25:20;;;;;;;25.10;6.35;;;12.50;99.90;;;;;;6156602;23;20014;-79
2022/11/10 12:27:52;;;;;;;24.13;7.28;;;12.40;99.90;;;;;;6156728;23;20025;-80
2022/11/10 12:30:18;;;;;;;27.20;6.85;;;12.50;99.90;;;;;;6156621;23;20056;-79
2022/11/10 12:33:03;;;;;;;33.17;6.80;;;12.40;99.90;;;;;;6156473;23;20017;-79
2022/11/10 12:35:36;;;;;;;28.23;7.15;;;12.50;99.90;;;;;;6130177;23;20052;-79
2022/11/10 12:38:15;;;;;;;23.58;5.93;;;12.40;99.90;;;;;;6130034;23;20029;-80
2022/11/10 12:40:47;;;;;;;28.27;7.63;;;12.40;99.90;;;;;;6156601;23;20064;-80
2022/11/10 12:43:32;;;;;;;30.17;6.90;;;12.40;99.90;;;;;;6130177;23;20513;-79
2022/11/10 12:46:03;;;;;;;26.17;6.00;;;12.40;99.90;;;;;;6156388;23;20013;-79
2022/11/10 12:48:41;;;;;;;27.25;6.90;;;12.40;99.90;;;;;;6156493;23;20017;-79
2022/11/10 12:51:24;;;;;;;28.38;7.45;;;12.40;99.90;;;;;;6156523;23;20014;-79
2022/11/10 12:53:50;;;;;;;26.15;6.20;;;12.40;99.90;;;;;;6156207;23;20027;-79
2022/11/10 12:56:56;;;;;;;27.67;6.78;;;12.40;99.90;;;;;;6129995;23;20057;-79
2022/11/10 12:59:35;;;;;;;29.95;6.10;;;12.40;99.90;;;;;;6037387;23;20025;-78
2022/11/10 13:02:20;;;;;;;26.10;6.97;;;12.40;99.90;;;;;;6120603;23;20021;-79
2022/11/10 13:05:05;;;;;;;20.20;6.70;;;12.40;99.90;;;;;;6129950;23;20048;-79
2022/11/10 13:07:31;;;;;;;31.67;6.10;;;12.40;99.90;;;;;;6155922;23;20024;-79
2022/11/10 13:10:17;;;;;;;29.58;6.40;;;12.40;99.90;;;;;;6156381;23;20017;-78
2022/11/10 13:13:21;;;;;;;25.83;6.68;;;12.40;99.90;;;;;;6156141;23;20407;-79
2022/11/10 13:15:52;;;;;;;30.35;6.10;;;12.50;99.90;;;;;;6041795;23;20026;-79